Terminal Aerodrome Forecast
Issued by NWS Omaha/Valley, NE

Home | Current Version | Previous Version | Text Only | Print | Product List | Glossary Off
Versions: 1 2 3 4 5 6 7 8 9 10 11 12 13 14 15 16 17 18 19 20 21 22 23 24 25 26 27 28 29 30 31 32 33 34 35 36 37 38 39 40

000
FTUS43 KOAX 111140 CCA
TAFOFK
TAF COR
KOFK 111140Z 1112/1212 29015KT P6SM SCT250 WS015/31045KT
     FM111400 31018G26KT P6SM SCT050
     FM111600 32028G38KT P6SM -SHRA SCT030
     FM111800 32026G36KT P6SM -SHRA BKN025
     FM112300 33023G32KT P6SM SCT025
     FM120300 14010KT P6SM FEW025=

USA.gov is the U.S. government's official web portal to all federal, state and local government web resources and services.